createdAt,value
2019-05-18T00:01:43.019Z,10.54
2019-05-18T00:04:10.467Z,10.58
2019-05-18T00:06:37.849Z,10.69
2019-05-18T00:09:06.250Z,10.64
2019-05-18T00:11:33.773Z,10.62
2019-05-18T00:14:01.236Z,10.67
2019-05-18T00:16:28.703Z,10.67
2019-05-18T00:18:56.115Z,10.68
2019-05-18T00:21:23.393Z,10.72
2019-05-18T00:23:50.775Z,10.72
2019-05-18T00:26:18.166Z,10.65
2019-05-18T00:28:45.510Z,10.55
2019-05-18T00:31:12.983Z,10.51
2019-05-18T00:33:40.374Z,10.35
2019-05-18T00:36:07.887Z,10.25
2019-05-18T00:38:35.273Z,10.16
2019-05-18T00:41:02.608Z,10.03
2019-05-18T00:43:30.314Z,9.86
2019-05-18T00:45:57.570Z,9.81
2019-05-18T00:48:24.876Z,9.66
2019-05-18T00:50:52.125Z,9.57
2019-05-18T00:53:19.482Z,9.44
2019-05-18T00:55:46.717Z,9.33
2019-05-18T00:58:14.014Z,9.24
2019-05-18T01:00:41.295Z,9.15
2019-05-18T01:03:08.586Z,8.96
2019-05-18T01:05:38.024Z,8.77
2019-05-18T01:08:05.211Z,8.77
2019-05-18T01:10:32.715Z,8.68
2019-05-18T01:13:00.180Z,8.66
2019-05-18T01:15:27.606Z,8.55
2019-05-18T01:17:57.727Z,8.46
2019-05-18T01:20:24.247Z,8.34
2019-05-18T01:22:52.263Z,8.33
2019-05-18T01:25:19.802Z,8.23
2019-05-18T01:27:47.092Z,8.07
2019-05-18T01:30:16.073Z,7.92
2019-05-18T01:32:43.571Z,7.91
2019-05-18T01:35:11.358Z,7.81
2019-05-18T01:37:39.040Z,7.82
2019-05-18T01:40:06.526Z,7.73
2019-05-18T01:42:33.872Z,7.76
2019-05-18T01:45:15.831Z,7.78
2019-05-18T01:47:30.851Z,7.76
2019-05-18T01:49:58.370Z,7.76
2019-05-18T01:52:25.633Z,7.85
2019-05-18T01:54:52.904Z,7.92
2019-05-18T01:57:20.160Z,7.20
2019-05-18T01:59:47.396Z,7.98
2019-05-18T02:02:14.776Z,8.04
2019-05-18T02:04:42.065Z,8.00
2019-05-18T02:07:09.325Z,7.96
2019-05-18T02:09:36.620Z,7.94
2019-05-18T02:12:04.190Z,7.95
2019-05-18T02:14:31.444Z,7.85
2019-05-18T02:16:58.801Z,7.85
2019-05-18T02:19:26.063Z,7.81
2019-05-18T02:21:53.324Z,7.72
2019-05-18T02:24:20.601Z,7.64
2019-05-18T02:26:48.034Z,7.61
2019-05-18T02:29:15.408Z,7.55
2019-05-18T02:31:42.972Z,7.48
2019-05-18T02:34:10.239Z,7.42
2019-05-18T02:36:37.699Z,7.35
2019-05-18T02:39:06.400Z,7.36
2019-05-18T02:41:33.788Z,7.23
2019-05-18T02:44:01.279Z,7.20
2019-05-18T02:46:28.557Z,7.18
2019-05-18T02:48:55.913Z,7.14
2019-05-18T02:51:23.166Z,7.14
2019-05-18T02:53:50.479Z,7.00
2019-05-18T02:56:17.704Z,6.99
2019-05-18T02:58:44.997Z,6.95
2019-05-18T03:01:12.265Z,6.87
2019-05-18T03:03:39.512Z,6.87
2019-05-18T03:06:06.848Z,6.83
2019-05-18T03:08:34.108Z,6.86
2019-05-18T03:11:01.334Z,6.68
2019-05-18T03:13:28.777Z,6.70
2019-05-18T03:15:56.042Z,6.64
2019-05-18T03:18:23.328Z,6.55
2019-05-18T03:20:50.614Z,6.56
2019-05-18T03:23:17.911Z,6.56
2019-05-18T03:25:45.177Z,6.60
2019-05-18T03:28:12.460Z,6.58
2019-05-18T03:30:39.697Z,6.61
2019-05-18T03:33:06.962Z,6.68
2019-05-18T03:35:34.251Z,6.90
2019-05-18T03:38:01.552Z,7.09
2019-05-18T03:40:28.837Z,7.08
2019-05-18T03:42:56.074Z,7.03
2019-05-18T03:45:23.385Z,7.04
2019-05-18T03:47:50.635Z,7.06
2019-05-18T03:50:17.946Z,7.07
2019-05-18T03:52:45.231Z,7.28
2019-05-18T03:55:12.460Z,7.26
2019-05-18T03:57:39.748Z,7.30
2019-05-18T04:00:07.468Z,7.38
2019-05-18T04:02:34.751Z,7.38
2019-05-18T04:05:02.080Z,7.38
2019-05-18T04:07:29.475Z,7.45
2019-05-18T04:09:56.763Z,7.39
2019-05-18T04:12:24.040Z,7.35
2019-05-18T04:14:51.352Z,7.31
2019-05-18T04:17:18.623Z,7.35
2019-05-18T04:19:47.455Z,7.37
2019-05-18T04:22:15.083Z,7.44
2019-05-18T04:24:42.391Z,7.49
2019-05-18T04:27:09.769Z,7.50
2019-05-18T04:29:37.082Z,7.53
2019-05-18T04:32:04.303Z,7.58
2019-05-18T04:34:31.588Z,7.65
2019-05-18T04:36:58.973Z,7.74
2019-05-18T04:39:26.234Z,7.80
2019-05-18T04:41:53.559Z,7.84
2019-05-18T04:44:20.809Z,7.90
2019-05-18T04:46:48.195Z,8.03
2019-05-18T04:49:15.404Z,8.10
2019-05-18T04:51:42.685Z,8.24
2019-05-18T04:54:10.037Z,8.35
2019-05-18T04:56:37.411Z,8.51
2019-05-18T04:59:07.036Z,8.66
2019-05-18T05:01:34.486Z,8.85
2019-05-18T05:04:02.833Z,9.06
2019-05-18T05:06:30.363Z,9.30
2019-05-18T05:08:57.773Z,9.65
2019-05-18T05:11:25.022Z,9.95
2019-05-18T05:13:52.302Z,10.29
2019-05-18T05:16:21.002Z,10.68
2019-05-18T05:18:48.262Z,11.07
2019-05-18T05:21:15.577Z,11.47
2019-05-18T05:23:42.951Z,11.80
2019-05-18T05:26:10.272Z,12.03
2019-05-18T05:28:37.636Z,12.40
2019-05-18T05:31:04.861Z,12.81
2019-05-18T05:33:32.128Z,13.17
2019-05-18T05:35:59.387Z,13.54
2019-05-18T05:38:26.710Z,14.03
2019-05-18T05:40:54.003Z,14.46
2019-05-18T05:43:21.286Z,14.95
2019-05-18T05:45:48.546Z,15.47
2019-05-18T05:48:15.856Z,15.37
2019-05-18T05:50:43.237Z,15.94
2019-05-18T05:53:10.500Z,16.21
2019-05-18T05:55:37.869Z,16.63
2019-05-18T05:58:05.303Z,16.84
2019-05-18T06:00:32.667Z,17.25
2019-05-18T06:03:00.147Z,17.56
2019-05-18T06:05:27.730Z,17.67
2019-05-18T06:07:55.358Z,17.94
2019-05-18T06:10:22.781Z,17.94
2019-05-18T06:12:51.161Z,18.14
2019-05-18T06:15:18.692Z,18.12
2019-05-18T06:17:45.954Z,18.36
2019-05-18T06:20:13.356Z,18.52
2019-05-18T06:22:40.686Z,18.66
2019-05-18T06:25:08.995Z,18.67
2019-05-18T06:27:37.434Z,18.80
2019-05-18T06:30:05.496Z,18.90
2019-05-18T06:32:33.066Z,18.89
2019-05-18T06:35:00.412Z,18.95
2019-05-18T06:37:30.335Z,19.13
2019-05-18T06:39:57.707Z,19.25
2019-05-18T06:42:25.040Z,19.16
2019-05-18T06:44:52.344Z,19.31
2019-05-18T06:47:19.570Z,19.42
2019-05-18T06:49:51.041Z,19.54
2019-05-18T06:52:19.070Z,19.69
2019-05-18T06:54:46.449Z,19.82
2019-05-18T06:57:14.882Z,19.91
2019-05-18T06:59:42.180Z,19.87
2019-05-18T07:02:09.503Z,19.89
2019-05-18T07:04:36.807Z,19.84
2019-05-18T07:07:04.212Z,19.78
2019-05-18T07:09:31.496Z,19.89
2019-05-18T07:11:58.818Z,20.20
2019-05-18T07:14:26.334Z,20.37
2019-05-18T07:16:53.604Z,20.78
2019-05-18T07:19:20.980Z,20.92
2019-05-18T07:21:48.308Z,21.22
2019-05-18T07:24:15.619Z,21.27
2019-05-18T07:26:43.120Z,21.27
2019-05-18T07:29:10.506Z,21.55
2019-05-18T07:31:37.847Z,21.75
2019-05-18T07:34:05.312Z,21.90
2019-05-18T07:36:32.732Z,21.94
2019-05-18T07:39:00.074Z,21.97
2019-05-18T07:41:27.430Z,22.04
2019-05-18T07:43:54.774Z,21.73
2019-05-18T07:46:22.095Z,21.79
2019-05-18T07:48:49.575Z,21.79
2019-05-18T07:51:17.024Z,21.95
2019-05-18T07:53:44.402Z,22.17
2019-05-18T07:56:11.690Z,22.31
2019-05-18T07:58:38.951Z,22.55
2019-05-18T08:01:06.330Z,22.84
2019-05-18T08:03:33.593Z,23.09
2019-05-18T08:06:00.850Z,23.29
2019-05-18T08:08:28.150Z,23.32
2019-05-18T08:10:55.386Z,23.32
2019-05-18T08:13:22.693Z,23.46
2019-05-18T08:15:49.923Z,23.74
2019-05-18T08:18:17.211Z,23.86
2019-05-18T08:20:44.470Z,24.05
2019-05-18T08:23:11.843Z,24.15
2019-05-18T08:25:39.086Z,24.31
2019-05-18T08:28:06.488Z,24.46
2019-05-18T08:30:33.814Z,24.42
2019-05-18T08:33:01.116Z,24.39
2019-05-18T08:35:28.436Z,24.19
2019-05-18T08:37:55.732Z,24.40
2019-05-18T08:40:22.997Z,24.48
2019-05-18T08:42:50.397Z,24.60
2019-05-18T08:45:17.608Z,24.80
2019-05-18T08:47:44.898Z,25.11
2019-05-18T08:50:12.428Z,25.42
2019-05-18T08:52:39.798Z,25.47
2019-05-18T08:55:07.125Z,25.29
2019-05-18T08:57:35.404Z,25.13
2019-05-18T09:00:02.718Z,25.34
2019-05-18T09:02:31.203Z,25.77
2019-05-18T09:04:58.432Z,25.99
2019-05-18T09:07:25.686Z,25.93
2019-05-18T09:09:52.938Z,25.90
2019-05-18T09:12:20.247Z,26.21
2019-05-18T09:14:47.623Z,26.12
2019-05-18T09:17:14.948Z,26.25
2019-05-18T09:19:42.186Z,26.36
2019-05-18T09:22:22.447Z,26.36
2019-05-18T09:24:38.787Z,26.00
2019-05-18T09:27:06.109Z,26.25
2019-05-18T09:29:33.468Z,26.25
2019-05-18T09:32:00.789Z,26.45
2019-05-18T09:34:28.066Z,26.52
2019-05-18T09:36:55.361Z,26.63
2019-05-18T09:39:22.695Z,26.73
2019-05-18T09:41:50.102Z,26.88
2019-05-18T09:44:17.361Z,26.85
2019-05-18T09:46:44.652Z,27.03
2019-05-18T09:49:13.056Z,26.95
2019-05-18T09:51:40.333Z,27.09
2019-05-18T09:54:07.702Z,27.76
2019-05-18T09:56:34.997Z,27.85
2019-05-18T09:59:02.402Z,28.11
2019-05-18T10:01:29.692Z,28.02
2019-05-18T10:03:56.963Z,27.77
2019-05-18T10:06:24.174Z,27.91
2019-05-18T10:08:51.450Z,28.13
2019-05-18T10:11:18.742Z,28.42
2019-05-18T10:13:46.125Z,28.65
2019-05-18T10:16:13.485Z,28.63
2019-05-18T10:18:40.839Z,28.53
2019-05-18T10:21:08.049Z,28.55
2019-05-18T10:23:35.290Z,28.46
2019-05-18T10:26:03.614Z,28.80
2019-05-18T10:28:31.142Z,28.98
2019-05-18T10:30:58.416Z,29.04
2019-05-18T10:33:25.725Z,28.94
2019-05-18T10:35:53.000Z,28.80
2019-05-18T10:38:20.524Z,29.19
2019-05-18T10:40:48.007Z,28.71
2019-05-18T10:43:15.533Z,29.30
2019-05-18T10:45:45.100Z,29.55
2019-05-18T10:48:12.258Z,29.68
2019-05-18T10:50:39.587Z,29.69
2019-05-18T10:53:08.208Z,29.66
2019-05-18T10:55:35.675Z,29.46
2019-05-18T10:58:04.113Z,29.66
2019-05-18T11:00:31.795Z,29.56
2019-05-18T11:02:59.186Z,29.69
2019-05-18T11:05:26.409Z,29.08
2019-05-18T11:07:53.659Z,29.73
2019-05-18T11:10:21.219Z,30.12
2019-05-18T11:12:48.463Z,30.63
2019-05-18T11:15:15.834Z,30.68
2019-05-18T11:17:43.140Z,30.47
2019-05-18T11:20:11.012Z,30.56
2019-05-18T11:22:38.264Z,30.83
2019-05-18T11:25:05.879Z,30.94
2019-05-18T11:27:33.623Z,31.24
2019-05-18T11:30:00.964Z,31.36
2019-05-18T11:32:28.407Z,31.46
2019-05-18T11:34:55.768Z,31.96
2019-05-18T11:37:23.031Z,31.79
2019-05-18T11:39:50.300Z,30.79
2019-05-18T11:42:17.565Z,31.11
2019-05-18T11:44:44.801Z,30.91
2019-05-18T11:47:14.739Z,30.84
2019-05-18T11:49:42.057Z,30.60
2019-05-18T11:52:09.330Z,30.80
2019-05-18T11:54:36.590Z,31.28
2019-05-18T11:57:03.889Z,31.70
2019-05-18T11:59:32.135Z,31.71
2019-05-18T12:01:59.433Z,31.70
2019-05-18T12:04:26.774Z,31.42
2019-05-18T12:06:54.228Z,31.81
2019-05-18T12:09:21.513Z,32.54
2019-05-18T12:11:48.836Z,33.12
2019-05-18T12:14:16.145Z,32.93
2019-05-18T12:16:43.395Z,32.93
2019-05-18T12:19:10.960Z,33.01
2019-05-18T12:21:38.226Z,33.33
2019-05-18T12:24:14.591Z,33.65
2019-05-18T12:26:35.013Z,34.09
2019-05-18T12:29:02.291Z,34.53
2019-05-18T12:31:29.553Z,34.13
2019-05-18T12:33:56.895Z,34.40
2019-05-18T12:36:24.137Z,33.93
2019-05-18T12:38:51.434Z,34.01
2019-05-18T12:41:20.646Z,34.62
2019-05-18T12:43:48.119Z,33.21
2019-05-18T12:46:15.554Z,33.78
2019-05-18T12:48:42.882Z,34.25
2019-05-18T12:51:10.292Z,34.72
2019-05-18T12:53:37.534Z,35.06
2019-05-18T12:56:04.822Z,35.20
2019-05-18T12:58:32.047Z,34.71
2019-05-18T13:00:59.261Z,35.12
2019-05-18T13:03:26.589Z,34.93
2019-05-18T13:05:53.841Z,34.39
2019-05-18T13:08:21.098Z,35.45
2019-05-18T13:10:48.409Z,34.59
2019-05-18T13:13:16.705Z,35.79
2019-05-18T13:15:44.136Z,36.11
2019-05-18T13:18:12.490Z,35.96
2019-05-18T13:20:39.765Z,35.98
2019-05-18T13:23:07.030Z,36.51
2019-05-18T13:25:34.314Z,36.79
2019-05-18T13:28:01.685Z,36.77
2019-05-18T13:30:30.305Z,37.08
2019-05-18T13:32:57.876Z,37.19
2019-05-18T13:35:25.316Z,37.52
2019-05-18T13:37:52.676Z,37.77
2019-05-18T13:40:20.302Z,36.72
2019-05-18T13:42:47.600Z,35.66
2019-05-18T13:45:15.287Z,36.85
2019-05-18T13:47:42.713Z,37.24
2019-05-18T13:50:10.147Z,37.58
2019-05-18T13:52:37.547Z,37.16
2019-05-18T13:55:05.354Z,37.41
2019-05-18T13:57:32.676Z,37.71
2019-05-18T13:59:59.927Z,38.49
2019-05-18T14:02:27.257Z,38.34
2019-05-18T14:04:54.692Z,37.63
2019-05-18T14:07:22.017Z,38.01
2019-05-18T14:09:49.339Z,38.40
2019-05-18T14:12:16.623Z,37.15
2019-05-18T14:14:43.863Z,35.82
2019-05-18T14:17:11.094Z,35.46
2019-05-18T14:19:38.350Z,35.19
2019-05-18T14:22:05.594Z,35.12
2019-05-18T14:24:32.886Z,34.93
2019-05-18T14:27:00.139Z,35.31
2019-05-18T14:29:27.425Z,36.02
2019-05-18T14:31:54.672Z,36.10
2019-05-18T14:34:22.612Z,36.90
2019-05-18T14:36:49.977Z,36.49
2019-05-18T14:39:17.632Z,36.33
2019-05-18T14:41:45.205Z,35.77
2019-05-18T14:44:12.707Z,35.33
2019-05-18T14:46:40.134Z,35.35
2019-05-18T14:49:07.406Z,35.82
2019-05-18T14:51:34.659Z,35.47
2019-05-18T14:54:02.175Z,35.95
2019-05-18T14:56:29.540Z,35.97
2019-05-18T14:58:56.774Z,35.91
2019-05-18T15:01:24.024Z,35.31
2019-05-18T15:03:52.376Z,34.75
2019-05-18T15:06:19.692Z,33.52
2019-05-18T15:08:46.917Z,32.39
2019-05-18T15:11:14.183Z,31.53
2019-05-18T15:13:41.725Z,30.42
2019-05-18T15:16:08.979Z,29.99
2019-05-18T15:18:36.261Z,30.38
2019-05-18T15:21:03.507Z,30.17
2019-05-18T15:23:30.737Z,29.57
2019-05-18T15:25:58.113Z,29.71
2019-05-18T15:28:25.512Z,30.96
2019-05-18T15:30:52.969Z,32.51
2019-05-18T15:33:20.306Z,34.01
2019-05-18T15:35:47.836Z,32.84
2019-05-18T15:38:15.472Z,32.03
2019-05-18T15:40:42.866Z,31.70
2019-05-18T15:43:10.180Z,32.27
2019-05-18T15:45:37.668Z,33.06
2019-05-18T15:48:04.947Z,33.09
2019-05-18T15:50:32.459Z,33.45
2019-05-18T15:53:01.395Z,33.98
2019-05-18T15:55:28.756Z,34.48
2019-05-18T15:57:56.402Z,35.01
2019-05-18T16:00:24.439Z,34.60
2019-05-18T16:02:52.189Z,33.21
2019-05-18T16:05:19.513Z,31.79
2019-05-18T16:07:46.944Z,31.44
2019-05-18T16:10:15.003Z,31.21
2019-05-18T16:12:42.394Z,32.29
2019-05-18T16:15:10.053Z,32.69
2019-05-18T16:17:39.818Z,31.63
2019-05-18T16:20:07.184Z,31.88
2019-05-18T16:22:34.572Z,32.39
2019-05-18T16:25:02.851Z,32.47
2019-05-18T16:27:31.992Z,32.76
2019-05-18T16:30:00.521Z,32.91
2019-05-18T16:32:27.798Z,33.26
2019-05-18T16:34:55.635Z,33.46
2019-05-18T16:37:22.964Z,32.91
2019-05-18T16:39:50.576Z,33.07
2019-05-18T16:42:18.124Z,33.14
2019-05-18T16:44:45.569Z,33.09
2019-05-18T16:47:13.000Z,33.42
2019-05-18T16:49:40.549Z,33.19
2019-05-18T16:52:07.813Z,33.41
2019-05-18T16:54:35.136Z,33.75
2019-05-18T16:57:02.409Z,33.17
2019-05-18T16:59:30.340Z,32.61
2019-05-18T17:01:58.464Z,31.59
2019-05-18T17:04:27.564Z,30.58
2019-05-18T17:06:55.400Z,30.05
2019-05-18T17:09:23.438Z,29.04
2019-05-18T17:11:50.983Z,28.41
2019-05-18T17:14:18.407Z,27.69
2019-05-18T17:16:45.779Z,27.17
2019-05-18T17:19:13.147Z,26.64
2019-05-18T17:21:40.521Z,26.44
2019-05-18T17:24:08.907Z,25.82
2019-05-18T17:26:51.492Z,25.57
2019-05-18T17:29:05.613Z,25.57
2019-05-18T17:31:33.025Z,25.29
2019-05-18T17:34:00.328Z,25.24
2019-05-18T17:36:28.169Z,25.23
2019-05-18T17:38:55.523Z,25.00
2019-05-18T17:41:22.800Z,24.64
2019-05-18T17:43:53.190Z,24.62
2019-05-18T17:46:20.493Z,24.38
2019-05-18T17:48:47.917Z,24.20
2019-05-18T17:51:15.414Z,24.21
2019-05-18T17:53:42.822Z,24.12
2019-05-18T17:56:10.094Z,23.85
2019-05-18T17:58:37.655Z,23.64
2019-05-18T18:01:05.058Z,23.41
2019-05-18T18:03:32.364Z,23.33
2019-05-18T18:05:59.751Z,23.27
2019-05-18T18:08:27.129Z,23.09
2019-05-18T18:10:54.504Z,23.11
2019-05-18T18:13:21.887Z,23.08
2019-05-18T18:15:49.360Z,22.98
2019-05-18T18:18:16.704Z,22.87
2019-05-18T18:20:44.149Z,22.67
2019-05-18T18:23:11.632Z,22.71
2019-05-18T18:25:39.111Z,22.67
2019-05-18T18:28:06.527Z,22.48
2019-05-18T18:30:33.921Z,22.36
2019-05-18T18:33:01.348Z,22.36
2019-05-18T18:35:28.650Z,22.19
2019-05-18T18:37:56.110Z,22.04
2019-05-18T18:40:23.414Z,21.98
2019-05-18T18:42:50.866Z,21.71
2019-05-18T18:45:18.344Z,21.58
2019-05-18T18:47:45.766Z,21.34
2019-05-18T18:50:13.192Z,21.09
2019-05-18T18:52:40.732Z,20.84
2019-05-18T18:55:08.981Z,20.64
2019-05-18T18:57:41.205Z,20.54
2019-05-18T19:00:06.784Z,20.30
2019-05-18T19:02:34.431Z,20.07
2019-05-18T19:07:23.897Z,19.72
2019-05-18T19:09:51.293Z,19.55
2019-05-18T19:12:18.622Z,19.23
2019-05-18T19:14:45.950Z,18.20
2019-05-18T19:17:13.494Z,18.68
2019-05-18T19:19:40.824Z,18.35
2019-05-18T19:22:08.199Z,18.17
2019-05-18T19:24:35.613Z,17.84
2019-05-18T19:27:03.124Z,17.57
2019-05-18T19:29:30.501Z,16.97
2019-05-18T19:31:57.803Z,16.88
2019-05-18T19:34:25.062Z,16.65
2019-05-18T19:36:52.494Z,16.46
2019-05-18T19:39:19.768Z,16.23
2019-05-18T19:41:47.237Z,16.10
2019-05-18T19:44:14.556Z,15.99
2019-05-18T19:46:41.892Z,15.79
2019-05-18T19:49:09.265Z,15.48
2019-05-18T19:51:36.815Z,15.40
2019-05-18T19:54:04.182Z,15.25
2019-05-18T19:56:39.225Z,15.16
2019-05-18T19:59:00.736Z,15.03
2019-05-18T20:01:28.078Z,14.85
2019-05-18T20:03:55.650Z,14.74
2019-05-18T20:06:23.092Z,14.58
2019-05-18T20:08:50.367Z,14.46
2019-05-18T20:11:17.658Z,14.36
2019-05-18T20:13:45.036Z,14.32
2019-05-18T20:16:12.282Z,14.28
2019-05-18T20:18:39.852Z,13.94
2019-05-18T20:21:07.226Z,13.86
2019-05-18T20:23:34.602Z,13.70
2019-05-18T20:26:01.938Z,13.50
2019-05-18T20:28:29.322Z,13.51
2019-05-18T20:30:56.716Z,13.42
2019-05-18T20:33:24.008Z,13.34
2019-05-18T20:35:51.308Z,13.21
2019-05-18T20:38:18.821Z,12.91
2019-05-18T20:40:46.163Z,13.10
2019-05-18T20:43:13.484Z,13.13
2019-05-18T20:45:40.805Z,12.96
2019-05-18T20:48:08.092Z,12.72
2019-05-18T20:50:35.366Z,12.62
2019-05-18T20:53:02.752Z,12.63
2019-05-18T20:55:30.180Z,12.43
2019-05-18T20:57:57.689Z,12.38
2019-05-18T21:00:25.052Z,12.29
2019-05-18T21:02:52.541Z,12.28
2019-05-18T21:05:19.935Z,12.33
2019-05-18T21:07:47.259Z,12.17
2019-05-18T21:10:14.765Z,12.04
2019-05-18T21:12:42.086Z,11.98
2019-05-18T21:15:10.055Z,11.91
2019-05-18T21:17:38.568Z,11.78
2019-05-18T21:20:07.078Z,11.73
2019-05-18T21:22:34.372Z,11.67
2019-05-18T21:25:01.827Z,11.67
2019-05-18T21:27:29.322Z,11.63
2019-05-18T21:29:56.596Z,11.55
2019-05-18T21:32:23.888Z,11.51
2019-05-18T21:34:51.174Z,11.47
2019-05-18T21:37:18.428Z,11.44
2019-05-18T21:39:46.700Z,11.41
2019-05-18T21:42:14.945Z,11.43
2019-05-18T21:44:42.225Z,11.32
2019-05-18T21:47:09.516Z,11.35
2019-05-18T21:49:36.802Z,11.22
2019-05-18T21:52:04.072Z,11.12
2019-05-18T21:54:31.330Z,10.83
2019-05-18T21:56:58.610Z,10.96
2019-05-18T21:59:25.833Z,10.91
2019-05-18T22:01:53.228Z,10.87
2019-05-18T22:04:20.491Z,10.84
2019-05-18T22:06:47.783Z,10.79
2019-05-18T22:09:15.036Z,10.90
2019-05-18T22:11:42.447Z,10.92
2019-05-18T22:14:09.672Z,10.85
2019-05-18T22:16:36.987Z,10.74
2019-05-18T22:19:04.282Z,10.69
2019-05-18T22:21:31.668Z,10.68
2019-05-18T22:23:59.926Z,10.56
2019-05-18T22:26:27.383Z,10.48
2019-05-18T22:28:54.780Z,10.49
2019-05-18T22:31:22.362Z,10.48
2019-05-18T22:33:49.602Z,10.48
2019-05-18T22:36:16.930Z,10.47
2019-05-18T22:38:44.219Z,10.36
2019-05-18T22:41:11.485Z,10.30
2019-05-18T22:43:38.868Z,10.36
2019-05-18T22:46:06.206Z,10.38
2019-05-18T22:48:41.372Z,10.24
2019-05-18T22:51:02.738Z,10.30
2019-05-18T22:53:30.090Z,10.25
2019-05-18T22:55:57.347Z,10.16
2019-05-18T22:58:25.584Z,10.19
2019-05-18T23:00:53.890Z,10.17
2019-05-18T23:03:22.365Z,10.13
2019-05-18T23:05:49.899Z,10.12
2019-05-18T23:08:17.316Z,10.08
2019-05-18T23:10:44.607Z,10.09
2019-05-18T23:13:12.083Z,10.04
2019-05-18T23:15:39.412Z,10.14
2019-05-18T23:18:06.704Z,9.85
2019-05-18T23:20:34.102Z,10.07
2019-05-18T23:23:01.718Z,10.06
2019-05-18T23:25:29.087Z,9.94
2019-05-18T23:27:56.484Z,10.05
2019-05-18T23:30:23.898Z,10.02
2019-05-18T23:32:51.279Z,9.99
2019-05-18T23:35:18.533Z,9.90
2019-05-18T23:37:46.063Z,9.88
2019-05-18T23:40:14.334Z,9.92
2019-05-18T23:42:41.751Z,9.95
2019-05-18T23:45:09.253Z,9.84
2019-05-18T23:47:36.545Z,9.81
2019-05-18T23:50:04.601Z,9.92
2019-05-18T23:52:31.955Z,9.98
2019-05-18T23:54:59.231Z,9.98
2019-05-18T23:57:26.712Z,9.95
2019-05-18T23:59:54.022Z,10.02
